createdAt,value
2023-03-17T00:00:16.158Z,99.80
2023-03-17T00:02:45.744Z,99.90
2023-03-17T00:05:23.117Z,99.90
2023-03-17T00:07:51.053Z,99.90
2023-03-17T00:10:19.609Z,99.90
2023-03-17T00:12:46.486Z,99.90
2023-03-17T00:15:14.871Z,99.90
2023-03-17T00:17:42.398Z,99.90
2023-03-17T00:20:13.430Z,99.90
2023-03-17T00:22:40.077Z,99.90
2023-03-17T00:25:17.393Z,99.90
2023-03-17T00:27:44.077Z,99.90
2023-03-17T00:30:13.489Z,99.90
2023-03-17T00:32:40.615Z,99.90
2023-03-17T00:35:15.913Z,99.90
2023-03-17T00:37:42.705Z,99.90
2023-03-17T00:40:14.577Z,99.90
2023-03-17T00:42:41.768Z,99.90
2023-03-17T00:45:08.584Z,99.90
2023-03-17T00:47:35.413Z,99.90
2023-03-17T00:50:01.964Z,99.90
2023-03-17T00:52:28.726Z,99.90
2023-03-17T00:54:55.313Z,99.90
2023-03-17T00:57:22.672Z,99.90
2023-03-17T00:59:49.466Z,99.90
2023-03-17T01:02:16.367Z,99.90
2023-03-17T01:04:49.961Z,99.90
2023-03-17T01:07:19.833Z,99.90
2023-03-17T01:09:46.491Z,99.90
2023-03-17T01:12:14.067Z,99.90
2023-03-17T01:14:40.945Z,99.90
2023-03-17T01:17:15.271Z,99.90
2023-03-17T01:19:42.470Z,99.90
2023-03-17T01:22:09.784Z,99.90
2023-03-17T01:24:37.371Z,99.90
2023-03-17T01:27:04.945Z,99.90
2023-03-17T01:29:31.634Z,99.90
2023-03-17T01:31:58.318Z,99.90
2023-03-17T01:34:25.199Z,99.90
2023-03-17T01:36:51.892Z,99.90
2023-03-17T01:39:19.611Z,99.90
2023-03-17T01:41:47.069Z,99.90
2023-03-17T01:44:18.278Z,99.90
2023-03-17T01:46:45.958Z,99.90
2023-03-17T01:49:38.885Z,99.90
2023-03-17T01:52:09.783Z,99.90
2023-03-17T01:54:45.058Z,99.90
2023-03-17T01:57:16.125Z,99.90
2023-03-17T01:59:45.588Z,99.90
2023-03-17T02:02:14.752Z,99.90
2023-03-17T02:04:41.762Z,99.90
2023-03-17T02:07:10.125Z,99.90
2023-03-17T02:09:36.995Z,99.90
2023-03-17T02:12:03.977Z,99.90
2023-03-17T02:14:30.653Z,99.90
2023-03-17T02:16:57.672Z,99.90
2023-03-17T02:19:24.500Z,99.90
2023-03-17T02:21:55.661Z,99.90
2023-03-17T02:24:30.798Z,99.90
2023-03-17T02:27:00.303Z,99.90
2023-03-17T02:29:27.714Z,99.90
2023-03-17T02:34:23.406Z,99.90
2023-03-17T02:36:50.152Z,99.90
2023-03-17T02:39:16.831Z,99.90
2023-03-17T02:41:43.911Z,99.90
2023-03-17T02:44:10.977Z,99.90
2023-03-17T02:46:37.537Z,99.90
2023-03-17T02:49:04.755Z,99.90
2023-03-17T02:51:31.630Z,99.90
2023-03-17T02:53:58.492Z,99.90
2023-03-17T02:56:25.291Z,99.90
2023-03-17T02:58:52.507Z,99.90
2023-03-17T03:01:19.145Z,99.90
2023-03-17T03:03:45.949Z,99.90
2023-03-17T03:06:12.859Z,99.90
2023-03-17T03:08:39.513Z,99.90
2023-03-17T03:11:06.262Z,99.90
2023-03-17T03:13:32.904Z,99.90
2023-03-17T03:16:00.299Z,99.90
2023-03-17T03:18:27.156Z,99.90
2023-03-17T03:20:54.058Z,99.90
2023-03-17T03:23:20.838Z,99.90
2023-03-17T03:25:47.702Z,99.90
2023-03-17T03:28:14.458Z,99.90
2023-03-17T03:30:41.679Z,99.90
2023-03-17T03:33:12.850Z,99.90
2023-03-17T03:35:40.151Z,99.90
2023-03-17T03:38:07.338Z,99.90
2023-03-17T03:40:34.482Z,99.90
2023-03-17T03:43:07.509Z,99.90
2023-03-17T03:45:39.775Z,99.90
2023-03-17T03:48:06.661Z,99.90
2023-03-17T03:50:33.484Z,99.90
2023-03-17T03:53:00.324Z,99.90
2023-03-17T03:55:27.027Z,99.90
2023-03-17T03:57:53.692Z,99.90
2023-03-17T04:00:20.619Z,99.90
2023-03-17T04:02:47.397Z,99.90
2023-03-17T04:05:15.362Z,99.90
2023-03-17T04:07:43.117Z,99.90
2023-03-17T04:10:10.937Z,99.90
2023-03-17T04:12:37.964Z,99.90
2023-03-17T04:15:05.671Z,99.90
2023-03-17T04:17:32.383Z,99.90
2023-03-17T04:19:58.964Z,99.90
2023-03-17T04:22:25.653Z,99.90
2023-03-17T04:24:52.344Z,99.90
2023-03-17T04:27:19.306Z,99.90
2023-03-17T04:29:46.049Z,99.90
2023-03-17T04:32:13.452Z,99.90
2023-03-17T04:34:40.392Z,99.90
2023-03-17T04:37:07.966Z,99.90
2023-03-17T04:39:34.743Z,99.90
2023-03-17T04:42:01.428Z,99.90
2023-03-17T04:44:28.101Z,99.90
2023-03-17T04:46:54.888Z,99.90
2023-03-17T04:49:21.846Z,99.90
2023-03-17T04:51:48.391Z,99.90
2023-03-17T04:54:16.392Z,99.90
2023-03-17T04:56:43.102Z,99.90
2023-03-17T04:59:09.756Z,99.90
2023-03-17T05:01:39.078Z,99.90
2023-03-17T05:04:06.738Z,99.90
2023-03-17T05:06:33.541Z,99.90
2023-03-17T05:09:00.389Z,99.90
2023-03-17T05:11:27.080Z,99.90
2023-03-17T05:13:53.831Z,99.90
2023-03-17T05:16:20.785Z,99.90
2023-03-17T05:18:47.812Z,99.90
2023-03-17T05:21:14.406Z,99.90
2023-03-17T05:23:41.805Z,99.90
2023-03-17T05:26:08.461Z,99.90
2023-03-17T05:28:35.243Z,99.90
2023-03-17T05:31:02.519Z,99.90
2023-03-17T05:33:29.258Z,99.90
2023-03-17T05:35:56.207Z,99.90
2023-03-17T05:38:23.077Z,99.90
2023-03-17T05:40:51.233Z,99.90
2023-03-17T05:43:18.167Z,99.90
2023-03-17T05:45:45.418Z,99.90
2023-03-17T05:48:13.158Z,99.90
2023-03-17T05:50:41.667Z,99.90
2023-03-17T05:53:08.739Z,99.90
2023-03-17T05:55:35.575Z,99.90
2023-03-17T05:58:04.618Z,99.90
2023-03-17T06:00:31.795Z,99.90
2023-03-17T06:02:58.895Z,99.90
2023-03-17T06:05:25.821Z,99.90
2023-03-17T06:07:56.238Z,99.90
2023-03-17T06:10:24.233Z,99.90
2023-03-17T06:12:51.455Z,99.90
2023-03-17T06:15:18.987Z,99.90
2023-03-17T06:17:45.943Z,99.90
2023-03-17T06:20:13.094Z,99.90
2023-03-17T06:22:51.704Z,99.90
2023-03-17T06:25:26.923Z,99.90
2023-03-17T06:27:54.913Z,99.90
2023-03-17T06:30:22.485Z,99.90
2023-03-17T06:32:55.911Z,99.90
2023-03-17T06:35:23.335Z,99.90
2023-03-17T06:37:50.183Z,99.90
2023-03-17T06:40:17.120Z,99.90
2023-03-17T06:42:44.028Z,99.90
2023-03-17T06:45:11.115Z,99.90
2023-03-17T06:47:38.174Z,99.90
2023-03-17T06:50:05.458Z,99.90
2023-03-17T06:52:32.246Z,99.90
2023-03-17T06:54:58.915Z,99.90
2023-03-17T06:57:26.163Z,99.90
2023-03-17T06:59:53.055Z,99.90
2023-03-17T07:02:20.161Z,99.90
2023-03-17T07:04:46.856Z,99.90
2023-03-17T07:07:13.749Z,99.90
2023-03-17T07:09:40.788Z,99.90
2023-03-17T07:12:07.605Z,99.90
2023-03-17T07:14:35.697Z,99.90
2023-03-17T07:17:03.702Z,99.90
2023-03-17T07:19:31.280Z,99.90
2023-03-17T07:21:58.031Z,99.90
2023-03-17T07:24:25.683Z,99.90
2023-03-17T07:26:52.802Z,99.90
2023-03-17T07:29:19.683Z,99.90
2023-03-17T07:31:47.282Z,99.90
2023-03-17T07:34:14.080Z,99.90
2023-03-17T07:36:41.412Z,99.90
2023-03-17T07:39:10.754Z,99.90
2023-03-17T07:41:38.521Z,99.90
2023-03-17T07:44:05.400Z,99.90
2023-03-17T07:46:32.460Z,99.90
2023-03-17T07:48:59.195Z,99.90
2023-03-17T07:51:27.757Z,99.90
2023-03-17T07:54:03.061Z,99.70
2023-03-17T07:56:31.096Z,99.90
2023-03-17T07:58:59.081Z,99.90
2023-03-17T08:01:26.531Z,99.60
2023-03-17T08:03:53.285Z,99.60
2023-03-17T08:06:20.296Z,99.90
2023-03-17T08:08:47.433Z,99.40
2023-03-17T08:11:14.336Z,99.30
2023-03-17T08:13:41.032Z,99.20
2023-03-17T08:16:08.161Z,98.90
2023-03-17T08:18:35.336Z,99.10
2023-03-17T08:21:02.275Z,98.80
2023-03-17T08:23:28.991Z,99.10
2023-03-17T08:25:59.517Z,98.30
2023-03-17T08:28:27.086Z,98.50
2023-03-17T08:30:54.475Z,98.20
2023-03-17T08:33:21.540Z,98.00
2023-03-17T08:35:48.200Z,97.70
2023-03-17T08:38:17.141Z,98.10
2023-03-17T08:40:43.793Z,97.30
2023-03-17T08:43:10.718Z,97.20
2023-03-17T08:45:38.763Z,97.50
2023-03-17T08:48:05.341Z,96.90
2023-03-17T08:50:32.352Z,96.90
2023-03-17T08:52:59.381Z,96.70
2023-03-17T08:55:26.376Z,96.40
2023-03-17T08:57:53.408Z,96.10
2023-03-17T09:00:20.943Z,95.20
2023-03-17T09:02:48.353Z,95.10
2023-03-17T09:05:15.612Z,95.40
2023-03-17T09:07:42.390Z,94.50
2023-03-17T09:10:09.670Z,94.40
2023-03-17T09:12:37.467Z,93.50
2023-03-17T09:15:05.285Z,91.90
2023-03-17T09:17:32.024Z,90.80
2023-03-17T09:19:59.696Z,90.00
2023-03-17T09:22:26.340Z,88.30
2023-03-17T09:24:53.325Z,87.90
2023-03-17T09:27:19.930Z,89.10
2023-03-17T09:29:46.797Z,88.80
2023-03-17T09:32:13.770Z,87.60
2023-03-17T09:34:40.512Z,85.30
2023-03-17T09:37:07.134Z,84.40
2023-03-17T09:39:34.166Z,84.40
2023-03-17T09:42:06.737Z,85.00
2023-03-17T09:44:45.910Z,86.60
2023-03-17T09:47:26.200Z,86.80
2023-03-17T09:49:56.102Z,86.20
2023-03-17T09:52:27.206Z,84.50
2023-03-17T09:54:54.030Z,84.40
2023-03-17T09:57:35.475Z,85.40
2023-03-17T10:00:14.640Z,85.10
2023-03-17T10:02:41.927Z,85.30
2023-03-17T10:05:19.504Z,85.40
2023-03-17T10:07:46.620Z,86.00
2023-03-17T10:10:26.865Z,85.40
2023-03-17T10:12:53.443Z,84.20
2023-03-17T10:15:20.090Z,85.60
2023-03-17T10:17:47.305Z,84.60
2023-03-17T10:20:28.490Z,83.30
2023-03-17T10:22:58.087Z,83.80
2023-03-17T10:25:34.452Z,82.00
2023-03-17T10:28:12.243Z,78.30
2023-03-17T10:30:39.707Z,77.40
2023-03-17T10:33:09.410Z,76.10
2023-03-17T10:35:39.379Z,76.60
2023-03-17T10:38:14.884Z,76.40
2023-03-17T10:40:45.913Z,76.50
2023-03-17T10:43:16.887Z,79.10
2023-03-17T10:45:56.125Z,79.20
2023-03-17T10:48:25.314Z,80.30
2023-03-17T10:50:54.308Z,79.00
2023-03-17T10:53:28.136Z,79.80
2023-03-17T10:56:06.756Z,80.70
2023-03-17T10:58:33.357Z,82.20
2023-03-17T11:01:03.803Z,80.70
2023-03-17T11:06:06.150Z,79.30
2023-03-17T11:08:36.605Z,79.60
2023-03-17T11:11:05.599Z,80.10
2023-03-17T11:13:32.859Z,81.00
2023-03-17T11:16:07.977Z,81.10
2023-03-17T11:18:35.870Z,82.70
2023-03-17T11:21:06.075Z,83.40
2023-03-17T11:23:32.777Z,83.30
2023-03-17T11:26:14.842Z,83.40
2023-03-17T11:28:44.535Z,84.30
2023-03-17T11:31:17.361Z,85.20
2023-03-17T11:33:50.824Z,85.50
2023-03-17T11:36:33.514Z,86.40
2023-03-17T11:39:00.150Z,86.40
2023-03-17T11:41:27.113Z,87.70
2023-03-17T11:44:08.937Z,87.80
2023-03-17T11:46:37.972Z,86.60
2023-03-17T11:49:04.557Z,84.30
2023-03-17T11:51:37.572Z,85.10
2023-03-17T11:54:24.740Z,85.40
2023-03-17T11:56:52.979Z,85.30
2023-03-17T11:59:31.470Z,85.60
2023-03-17T12:02:16.388Z,86.90
2023-03-17T12:04:55.547Z,86.20
2023-03-17T12:07:27.613Z,85.90
2023-03-17T12:09:58.980Z,86.00
2023-03-17T12:12:29.299Z,84.70
2023-03-17T12:14:58.159Z,86.30
2023-03-17T12:17:39.283Z,86.30
2023-03-17T12:20:24.598Z,86.00
2023-03-17T12:23:09.953Z,87.00
2023-03-17T12:25:49.744Z,87.50
2023-03-17T12:28:22.845Z,88.00
2023-03-17T12:30:52.144Z,87.20
2023-03-17T12:33:24.719Z,86.10
2023-03-17T12:35:52.061Z,87.70
2023-03-17T12:38:20.821Z,87.20
2023-03-17T12:40:51.227Z,86.20
2023-03-17T12:43:39.551Z,87.50
2023-03-17T12:46:16.085Z,86.70
2023-03-17T12:48:42.711Z,86.30
2023-03-17T12:51:12.338Z,85.30
2023-03-17T12:53:51.653Z,85.00
2023-03-17T12:56:34.314Z,85.30
2023-03-17T12:59:05.353Z,85.40
2023-03-17T13:01:34.975Z,84.10
2023-03-17T13:04:15.397Z,85.10
2023-03-17T13:06:45.024Z,84.80
2023-03-17T13:09:35.776Z,84.30
2023-03-17T13:12:04.462Z,84.00
2023-03-17T13:14:40.221Z,82.80
2023-03-17T13:17:16.588Z,82.40
2023-03-17T13:19:50.203Z,82.50
2023-03-17T13:22:19.683Z,82.20
2023-03-17T13:24:48.108Z,83.00
2023-03-17T13:27:34.710Z,84.20
2023-03-17T13:30:22.109Z,84.80
2023-03-17T13:32:55.088Z,85.40
2023-03-17T13:35:25.524Z,86.10
2023-03-17T13:38:07.495Z,84.90
2023-03-17T13:40:40.156Z,85.00
2023-03-17T13:43:20.907Z,84.20
2023-03-17T13:45:48.728Z,84.40
2023-03-17T13:48:24.278Z,84.90
2023-03-17T13:50:57.972Z,85.20
2023-03-17T13:53:27.695Z,84.40
2023-03-17T13:56:14.473Z,84.90
2023-03-17T13:58:50.067Z,85.30
2023-03-17T14:01:17.335Z,85.00
2023-03-17T14:03:49.953Z,85.40
2023-03-17T14:06:18.750Z,86.20
2023-03-17T14:08:53.595Z,85.10
2023-03-17T14:11:38.846Z,84.90
2023-03-17T14:14:26.035Z,85.80
2023-03-17T14:16:58.450Z,87.30
2023-03-17T14:19:27.504Z,87.60
2023-03-17T14:21:55.262Z,87.50
2023-03-17T14:24:25.962Z,87.20
2023-03-17T14:26:52.770Z,86.70
2023-03-17T14:29:21.442Z,87.60
2023-03-17T14:31:58.965Z,87.30
2023-03-17T14:34:31.795Z,88.60
2023-03-17T14:37:03.324Z,88.10
2023-03-17T14:39:30.176Z,88.60
2023-03-17T14:42:02.966Z,89.20
2023-03-17T14:44:39.783Z,89.30
2023-03-17T14:47:12.679Z,89.50
2023-03-17T14:49:45.722Z,88.60
2023-03-17T14:52:19.789Z,88.90
2023-03-17T14:54:49.188Z,89.40
2023-03-17T14:57:23.717Z,89.90
2023-03-17T15:00:16.666Z,90.00
2023-03-17T15:02:53.987Z,90.40
2023-03-17T15:05:37.068Z,90.50
2023-03-17T15:08:23.611Z,90.10
2023-03-17T15:10:50.435Z,90.20
2023-03-17T15:13:22.404Z,89.90
2023-03-17T15:15:49.059Z,90.30
2023-03-17T15:18:15.881Z,90.50
2023-03-17T15:20:43.956Z,90.70
2023-03-17T15:23:18.281Z,90.80
2023-03-17T15:25:46.265Z,90.60
2023-03-17T15:28:14.118Z,90.90
2023-03-17T15:30:48.482Z,90.30
2023-03-17T15:33:21.856Z,90.70
2023-03-17T15:35:49.075Z,90.30
2023-03-17T15:38:16.227Z,90.50
2023-03-17T15:40:42.862Z,90.90
2023-03-17T15:43:13.947Z,91.20
2023-03-17T15:45:41.827Z,90.70
2023-03-17T15:48:27.744Z,90.80
2023-03-17T15:50:56.752Z,90.90
2023-03-17T15:53:23.309Z,91.60
2023-03-17T15:55:50.121Z,91.30
2023-03-17T15:58:16.721Z,91.60
2023-03-17T16:00:44.309Z,91.60
2023-03-17T16:03:31.274Z,91.70
2023-03-17T16:05:58.474Z,91.80
2023-03-17T16:08:25.136Z,91.70
2023-03-17T16:10:52.289Z,91.60
2023-03-17T16:13:19.255Z,91.40
2023-03-17T16:15:59.943Z,91.80
2023-03-17T16:18:34.612Z,92.20
2023-03-17T16:21:05.563Z,93.10
2023-03-17T16:23:32.708Z,94.00
2023-03-17T16:26:13.880Z,94.10
2023-03-17T16:28:42.364Z,93.80
2023-03-17T16:31:16.052Z,93.80
2023-03-17T16:33:42.823Z,93.80
2023-03-17T16:36:13.526Z,93.70
2023-03-17T16:38:40.160Z,93.80
2023-03-17T16:41:10.334Z,93.70
2023-03-17T16:43:37.875Z,93.30
2023-03-17T16:46:06.080Z,93.30
2023-03-17T16:48:33.144Z,93.30
2023-03-17T16:50:59.900Z,92.90
2023-03-17T16:53:26.561Z,93.00
2023-03-17T16:55:56.429Z,93.20
2023-03-17T17:01:02.678Z,93.30
2023-03-17T17:03:29.804Z,92.70
2023-03-17T17:05:58.686Z,92.60
2023-03-17T17:08:25.363Z,93.00
2023-03-17T17:10:56.799Z,92.80
2023-03-17T17:13:24.657Z,92.90
2023-03-17T17:15:51.526Z,92.90
2023-03-17T17:18:20.472Z,92.50
2023-03-17T17:20:47.955Z,92.60
2023-03-17T17:23:18.451Z,92.40
2023-03-17T17:25:48.182Z,92.50
2023-03-17T17:28:16.005Z,92.40
2023-03-17T17:30:45.034Z,92.50
2023-03-17T17:33:12.074Z,92.50
2023-03-17T17:35:38.793Z,92.40
2023-03-17T17:38:10.124Z,92.40
2023-03-17T17:40:41.863Z,92.50
2023-03-17T17:43:09.298Z,92.70
2023-03-17T17:45:39.523Z,92.60
2023-03-17T17:48:06.451Z,92.60
2023-03-17T17:50:36.827Z,92.60
2023-03-17T17:53:11.633Z,92.90
2023-03-17T17:55:39.842Z,92.60
2023-03-17T17:58:06.827Z,92.60
2023-03-17T18:00:34.068Z,92.60
2023-03-17T18:03:01.107Z,92.70
2023-03-17T18:05:27.969Z,92.50
2023-03-17T18:07:54.612Z,92.80
2023-03-17T18:10:27.093Z,93.30
2023-03-17T18:12:54.102Z,93.70
2023-03-17T18:15:21.995Z,93.70
2023-03-17T18:17:49.022Z,93.60
2023-03-17T18:20:17.009Z,94.30
2023-03-17T18:22:44.032Z,94.10
2023-03-17T18:25:11.483Z,94.60
2023-03-17T18:27:38.426Z,95.00
2023-03-17T18:30:07.354Z,96.60
2023-03-17T18:32:37.636Z,96.40
2023-03-17T18:35:06.838Z,96.60
2023-03-17T18:37:33.856Z,96.50
2023-03-17T18:40:13.351Z,96.40
2023-03-17T18:42:41.660Z,96.80
2023-03-17T18:45:09.821Z,97.70
2023-03-17T18:47:39.114Z,98.30
2023-03-17T18:50:07.060Z,99.40
2023-03-17T18:52:34.322Z,99.90
2023-03-17T18:55:01.063Z,99.90
2023-03-17T18:57:28.190Z,99.90
2023-03-17T18:59:55.436Z,99.90
2023-03-17T19:02:22.176Z,99.90
2023-03-17T19:04:48.951Z,99.90
2023-03-17T19:07:16.297Z,99.90
2023-03-17T19:09:42.944Z,99.90
2023-03-17T19:12:09.799Z,99.90
2023-03-17T19:14:37.252Z,99.90
2023-03-17T19:17:04.192Z,99.90
2023-03-17T19:19:31.746Z,99.90
2023-03-17T19:21:58.490Z,99.90
2023-03-17T19:24:25.529Z,99.90
2023-03-17T19:26:52.172Z,99.90
2023-03-17T19:29:18.862Z,99.90
2023-03-17T19:31:48.356Z,99.90
2023-03-17T19:34:15.441Z,99.90
2023-03-17T19:36:43.099Z,99.90
2023-03-17T19:39:10.799Z,99.90
2023-03-17T19:41:37.650Z,99.90
2023-03-17T19:44:06.820Z,99.90
2023-03-17T19:46:33.944Z,99.90
2023-03-17T19:49:00.693Z,99.90
2023-03-17T19:51:27.491Z,99.90
2023-03-17T19:53:54.914Z,99.90
2023-03-17T19:56:25.112Z,99.90
2023-03-17T19:58:51.974Z,99.90
2023-03-17T20:01:19.059Z,99.90
2023-03-17T20:03:45.856Z,99.90
2023-03-17T20:06:13.060Z,99.90
2023-03-17T20:08:40.369Z,99.90
2023-03-17T20:11:09.245Z,99.90
2023-03-17T20:13:36.332Z,99.90
2023-03-17T20:16:03.588Z,99.90
2023-03-17T20:18:30.495Z,99.90
2023-03-17T20:23:26.548Z,99.90
2023-03-17T20:25:53.462Z,99.90
2023-03-17T20:28:21.449Z,99.90
2023-03-17T20:30:48.276Z,99.90
2023-03-17T20:33:15.265Z,99.90
2023-03-17T20:35:43.143Z,99.90
2023-03-17T20:38:11.312Z,99.90
2023-03-17T20:40:38.453Z,99.90
2023-03-17T20:43:06.747Z,99.90
2023-03-17T20:45:36.840Z,99.90
2023-03-17T20:48:04.954Z,99.90
2023-03-17T20:50:34.620Z,99.90
2023-03-17T20:53:01.624Z,99.90
2023-03-17T20:55:28.313Z,99.90
2023-03-17T20:57:59.796Z,99.90
2023-03-17T21:00:28.223Z,99.90
2023-03-17T21:02:57.498Z,99.90
2023-03-17T21:05:27.642Z,99.90
2023-03-17T21:07:56.578Z,99.90
2023-03-17T21:10:23.578Z,99.90
2023-03-17T21:12:54.692Z,99.90
2023-03-17T21:15:23.467Z,99.90
2023-03-17T21:17:50.288Z,99.90
2023-03-17T21:20:17.075Z,99.90
2023-03-17T21:22:46.636Z,99.90
2023-03-17T21:25:13.684Z,99.90
2023-03-17T21:27:41.004Z,99.90
2023-03-17T21:30:12.378Z,99.90
2023-03-17T21:32:39.912Z,99.90
2023-03-17T21:35:07.878Z,99.90
2023-03-17T21:37:34.920Z,99.90
2023-03-17T21:40:01.558Z,99.90
2023-03-17T21:42:28.346Z,99.90
2023-03-17T21:44:55.159Z,99.90
2023-03-17T21:47:21.935Z,99.90
2023-03-17T21:49:48.602Z,99.90
2023-03-17T21:52:15.659Z,99.90
2023-03-17T21:54:42.454Z,99.90
2023-03-17T21:57:12.190Z,99.90
2023-03-17T21:59:39.969Z,99.90
2023-03-17T22:02:06.615Z,99.90
2023-03-17T22:04:33.337Z,99.90
2023-03-17T22:07:00.143Z,99.90
2023-03-17T22:09:26.811Z,99.90
2023-03-17T22:11:54.042Z,99.90
2023-03-17T22:14:20.914Z,99.90
2023-03-17T22:16:48.504Z,99.90
2023-03-17T22:19:15.692Z,99.90
2023-03-17T22:21:42.820Z,99.90
2023-03-17T22:24:10.044Z,99.90
2023-03-17T22:26:36.848Z,99.90
2023-03-17T22:29:03.865Z,99.90
2023-03-17T22:31:30.831Z,99.90
2023-03-17T22:33:57.999Z,99.90
2023-03-17T22:36:25.641Z,99.90
2023-03-17T22:38:52.505Z,99.90
2023-03-17T22:41:21.425Z,99.90
2023-03-17T22:43:48.041Z,99.90
2023-03-17T22:46:15.209Z,99.90
2023-03-17T22:48:41.791Z,99.90
2023-03-17T22:51:12.814Z,99.90
2023-03-17T22:53:40.480Z,99.90
2023-03-17T22:56:07.791Z,99.90
2023-03-17T22:58:34.502Z,99.90
2023-03-17T23:01:01.523Z,99.90
2023-03-17T23:03:28.516Z,99.90
2023-03-17T23:05:57.189Z,99.90
2023-03-17T23:08:24.605Z,99.90
2023-03-17T23:10:53.845Z,99.90
2023-03-17T23:13:20.954Z,99.90
2023-03-17T23:15:48.558Z,99.90
2023-03-17T23:18:16.908Z,99.90
2023-03-17T23:20:43.647Z,99.90
2023-03-17T23:23:11.525Z,99.90
2023-03-17T23:25:38.498Z,99.90
2023-03-17T23:28:06.144Z,99.90
2023-03-17T23:30:33.333Z,99.90
2023-03-17T23:33:01.161Z,99.90
2023-03-17T23:35:28.502Z,99.90
2023-03-17T23:37:55.338Z,99.90
2023-03-17T23:40:23.635Z,99.90
2023-03-17T23:42:50.591Z,99.90
2023-03-17T23:45:18.190Z,99.90
2023-03-17T23:47:45.291Z,99.90
2023-03-17T23:50:12.652Z,99.90
2023-03-17T23:52:39.311Z,99.90
2023-03-17T23:55:10.156Z,99.90
2023-03-17T23:57:37.820Z,99.90
